Timmins/Victor M. Power
CYTS : now visible

Airfield :











YOU CAN JOIN US ON...

 
LOGIN :

Register | Disclaimer

   EN    FR    IT 

 









Legend :    VFR   Marginal VFR   IFR   Intensive IFR   Very Intensive IFR
Visi :
Ceiling :
>= 8 km
>= 3000ft
5 to 8 km
1000 to 3000 ft
1500m to 5 km
500 to 1000 ft
800 to 1500m
200 to 500 ft
< 800m
< 200 ft
Symbols :   Thunderstorms  Fog  Heavy snow  Heavy precipitations  Wind > 20 kt






- Airport Elevation : 967 ft
- IATA code : YTS


CYTS - Timmins/Victor M. Power

CURRENT METAR :
  • 280500Z 20003KT 15SM BKN058 BKN140 BKN230 21/17 A2989 RMK SC5AC1CI1 CI TR SLP122 DENSITY ALT 2000FT

EXPIRED METARs :
  • 280400Z 18006KT 15SM SCT061 BKN140 BKN200 20/17 A2989 RMK SC3AC3CI1 CI TR SLP121 DENSITY ALT 1900FT
  • 280300Z 21004KT 15SM FEW065 BKN140 BKN190 24/16 A2989 RMK CU1AC5CI1 CU TR SLP121 DENSITY ALT 2300FT

TAF TAF CYTS
Valid from the 28 at 02:00 until the 28 at 14:00 UTC


280130Z 2802/2814 19005KT P6SM FEW060 BKN140
FM280600 VRB03KT P6SM BKN060
FM281200 22006KT P6SM -SHRA BKN030 RMK NXT FCST BY 280800Z
CZYZ FIR / North America



MET'MAP, your aeronautical weather chart ! - Copyright ORBIFLY December 2007 - Disclaimer

ORBIFLY MET'MAP TEAM :

Programming & Development : Alexandra Zaïnal
Concept & original design : Baudouin d'Aumeries
Assistance for programming : Marc-Olivier Méhu
Technical & hardware support : Manuel Goepfert

Contact : metmap@orbifly.com




SOURCES & CREDITS :

   NOAA       Earth
Advisory